createdAt,value
2023-04-21T00:02:01.153Z,99.90
2023-04-21T00:04:29.781Z,99.90
2023-04-21T00:06:58.578Z,99.90
2023-04-21T00:09:26.565Z,99.90
2023-04-21T00:11:56.195Z,99.90
2023-04-21T00:14:24.243Z,99.90
2023-04-21T00:16:53.354Z,99.90
2023-04-21T00:19:21.689Z,99.90
2023-04-21T00:21:50.451Z,99.90
2023-04-21T00:24:18.595Z,99.90
2023-04-21T00:26:47.420Z,99.90
2023-04-21T00:29:17.018Z,99.90
2023-04-21T00:31:45.580Z,99.90
2023-04-21T00:34:13.617Z,99.90
2023-04-21T00:36:42.401Z,99.90
2023-04-21T00:39:10.576Z,99.90
2023-04-21T00:41:39.955Z,99.90
2023-04-21T00:44:09.883Z,99.90
2023-04-21T00:46:39.925Z,99.90
2023-04-21T00:49:08.655Z,99.90
2023-04-21T00:51:37.554Z,99.90
2023-04-21T00:54:06.414Z,99.90
2023-04-21T00:56:36.367Z,99.90
2023-04-21T00:59:04.685Z,99.90
2023-04-21T01:01:34.690Z,99.90
2023-04-21T01:04:04.887Z,99.90
2023-04-21T01:06:34.565Z,99.90
2023-04-21T01:09:04.676Z,99.90
2023-04-21T01:11:33.194Z,99.90
2023-04-21T01:14:01.556Z,99.90
2023-04-21T01:16:30.352Z,99.90
2023-04-21T01:18:59.204Z,99.90
2023-04-21T01:21:30.052Z,99.90
2023-04-21T01:23:59.558Z,99.90
2023-04-21T01:26:28.375Z,99.90
2023-04-21T01:28:57.768Z,99.90
2023-04-21T01:31:27.724Z,99.90
2023-04-21T01:33:55.810Z,99.90
2023-04-21T01:36:24.297Z,99.90
2023-04-21T01:38:53.700Z,99.90
2023-04-21T01:41:25.598Z,99.90
2023-04-21T01:43:55.675Z,99.90
2023-04-21T01:46:26.083Z,99.90
2023-04-21T01:48:54.188Z,99.90
2023-04-21T01:51:22.870Z,99.90
2023-04-21T01:53:50.891Z,99.90
2023-04-21T01:56:19.458Z,99.90
2023-04-21T01:58:48.823Z,99.90
2023-04-21T02:01:16.895Z,99.90
2023-04-21T02:03:46.402Z,99.90
2023-04-21T02:06:17.821Z,99.90
2023-04-21T02:08:46.263Z,99.90
2023-04-21T02:11:14.292Z,99.90
2023-04-21T02:13:43.062Z,99.90
2023-04-21T02:16:14.191Z,99.90
2023-04-21T02:18:48.874Z,99.90
2023-04-21T02:21:16.965Z,99.90
2023-04-21T02:23:45.359Z,99.90
2023-04-21T02:26:13.427Z,99.90
2023-04-21T02:28:42.190Z,99.90
2023-04-21T02:31:10.330Z,99.90
2023-04-21T02:33:40.469Z,99.90
2023-04-21T02:36:08.799Z,99.90
2023-04-21T02:38:37.197Z,99.90
2023-04-21T02:41:05.289Z,99.90
2023-04-21T02:43:35.362Z,99.90
2023-04-21T02:46:06.647Z,99.90
2023-04-21T02:48:35.640Z,99.90
2023-04-21T02:51:05.470Z,99.90
2023-04-21T02:53:33.948Z,99.90
2023-04-21T02:56:04.588Z,99.90
2023-04-21T02:58:33.324Z,99.90
2023-04-21T03:01:01.747Z,99.90
2023-04-21T03:03:30.721Z,99.90
2023-04-21T03:05:59.259Z,99.90
2023-04-21T03:08:28.730Z,99.90
2023-04-21T03:10:57.080Z,99.90
2023-04-21T03:13:26.023Z,99.90
2023-04-21T03:15:54.113Z,99.90
2023-04-21T03:18:22.956Z,99.90
2023-04-21T03:20:51.918Z,99.90
2023-04-21T03:23:20.629Z,99.90
2023-04-21T03:25:50.464Z,99.90
2023-04-21T03:28:19.883Z,99.90
2023-04-21T03:30:48.034Z,99.90
2023-04-21T03:33:16.230Z,99.90
2023-04-21T03:35:44.300Z,99.90
2023-04-21T03:38:13.068Z,99.90
2023-04-21T03:40:41.138Z,99.90
2023-04-21T03:43:11.401Z,99.90
2023-04-21T03:45:40.333Z,99.90
2023-04-21T03:48:09.114Z,99.90
2023-04-21T03:50:37.225Z,99.90
2023-04-21T03:53:05.593Z,99.90
2023-04-21T03:55:33.617Z,99.90
2023-04-21T03:58:02.105Z,99.90
2023-04-21T04:00:31.509Z,99.90
2023-04-21T04:02:59.981Z,99.90
2023-04-21T04:05:28.057Z,99.90
2023-04-21T04:07:56.781Z,99.90
2023-04-21T04:10:24.864Z,99.90
2023-04-21T04:12:53.549Z,99.90
2023-04-21T04:15:21.646Z,99.90
2023-04-21T04:17:51.641Z,99.90
2023-04-21T04:20:19.803Z,99.90
2023-04-21T04:22:48.718Z,99.90
2023-04-21T04:25:17.132Z,99.90
2023-04-21T04:27:46.084Z,99.90
2023-04-21T04:30:14.330Z,99.90
2023-04-21T04:32:43.201Z,99.90
2023-04-21T04:35:12.993Z,99.90
2023-04-21T04:37:42.139Z,99.90
2023-04-21T04:40:12.198Z,99.90
2023-04-21T04:42:41.090Z,99.90
2023-04-21T04:45:09.454Z,99.90
2023-04-21T04:47:38.292Z,99.90
2023-04-21T04:50:06.677Z,99.90
2023-04-21T04:52:36.564Z,99.90
2023-04-21T04:55:04.735Z,99.90
2023-04-21T04:57:33.569Z,99.90
2023-04-21T05:00:01.516Z,99.90
2023-04-21T05:02:30.349Z,99.90
2023-04-21T05:04:58.604Z,99.90
2023-04-21T05:07:27.449Z,99.90
2023-04-21T05:09:56.833Z,99.90
2023-04-21T05:12:25.584Z,99.90
2023-04-21T05:14:53.558Z,99.90
2023-04-21T05:17:22.047Z,99.90
2023-04-21T05:19:50.075Z,99.90
2023-04-21T05:22:18.525Z,99.90
2023-04-21T05:24:46.532Z,99.90
2023-04-21T05:27:16.764Z,99.90
2023-04-21T05:29:44.925Z,99.90
2023-04-21T05:32:13.355Z,99.90
2023-04-21T05:34:42.189Z,99.90
2023-04-21T05:37:11.424Z,99.90
2023-04-21T05:39:40.268Z,99.90
2023-04-21T05:42:10.459Z,99.90
2023-04-21T05:44:41.103Z,99.90
2023-04-21T05:47:09.169Z,99.90
2023-04-21T05:49:37.586Z,99.90
2023-04-21T05:52:05.640Z,99.90
2023-04-21T05:54:34.095Z,99.90
2023-04-21T05:57:02.412Z,99.90
2023-04-21T05:59:30.487Z,99.90
2023-04-21T06:01:59.971Z,99.90
2023-04-21T06:04:28.919Z,99.90
2023-04-21T06:06:57.240Z,99.90
2023-04-21T06:09:26.083Z,99.90
2023-04-21T06:11:54.106Z,99.90
2023-04-21T06:14:22.878Z,99.90
2023-04-21T06:16:50.956Z,99.90
2023-04-21T06:19:21.054Z,99.90
2023-04-21T06:21:49.075Z,99.90
2023-04-21T06:24:25.710Z,99.90
2023-04-21T06:26:53.884Z,99.90
2023-04-21T06:29:22.228Z,99.90
2023-04-21T06:31:51.058Z,99.90
2023-04-21T06:34:21.639Z,99.90
2023-04-21T06:36:50.193Z,99.90
2023-04-21T06:39:18.160Z,99.90
2023-04-21T06:41:46.855Z,99.90
2023-04-21T06:44:14.988Z,99.90
2023-04-21T06:46:43.412Z,99.90
2023-04-21T06:49:11.917Z,99.90
2023-04-21T06:51:42.165Z,99.90
2023-04-21T06:54:10.560Z,99.90
2023-04-21T06:56:38.553Z,99.90
2023-04-21T06:59:07.195Z,99.90
2023-04-21T07:01:35.280Z,99.90
2023-04-21T07:04:04.328Z,99.90
2023-04-21T07:06:33.009Z,99.90
2023-04-21T07:09:03.003Z,99.90
2023-04-21T07:11:31.400Z,99.90
2023-04-21T07:14:02.674Z,99.90
2023-04-21T07:16:30.990Z,99.90
2023-04-21T07:18:59.180Z,99.90
2023-04-21T07:21:27.454Z,99.90
2023-04-21T07:23:56.098Z,99.90
2023-04-21T07:26:25.576Z,99.90
2023-04-21T07:28:55.821Z,99.90
2023-04-21T07:31:23.869Z,99.90
2023-04-21T07:33:51.968Z,99.90
2023-04-21T07:36:20.355Z,99.90
2023-04-21T07:38:48.357Z,99.90
2023-04-21T07:41:16.788Z,99.90
2023-04-21T07:43:46.372Z,99.90
2023-04-21T07:46:14.774Z,99.90
2023-04-21T07:48:42.866Z,99.90
2023-04-21T07:51:10.919Z,99.90
2023-04-21T07:53:38.926Z,99.90
2023-04-21T07:56:07.552Z,98.50
2023-04-21T07:58:35.594Z,97.10
2023-04-21T08:01:05.709Z,97.10
2023-04-21T08:03:33.855Z,96.20
2023-04-21T08:06:03.421Z,95.90
2023-04-21T08:08:32.084Z,95.40
2023-04-21T08:11:01.117Z,94.90
2023-04-21T08:13:29.616Z,94.10
2023-04-21T08:15:58.426Z,94.30
2023-04-21T08:18:27.844Z,93.10
2023-04-21T08:20:57.955Z,94.10
2023-04-21T08:23:26.586Z,94.10
2023-04-21T08:25:55.262Z,94.10
2023-04-21T08:28:23.770Z,93.50
2023-04-21T08:30:52.206Z,92.90
2023-04-21T08:33:20.836Z,92.20
2023-04-21T08:36:01.669Z,91.60
2023-04-21T08:38:32.698Z,91.30
2023-04-21T08:41:01.568Z,90.20
2023-04-21T08:43:30.129Z,89.80
2023-04-21T08:45:59.124Z,89.50
2023-04-21T08:48:29.084Z,89.90
2023-04-21T08:50:59.132Z,89.60
2023-04-21T08:53:27.578Z,88.70
2023-04-21T08:56:10.187Z,90.70
2023-04-21T08:58:42.025Z,90.60
2023-04-21T09:01:10.280Z,91.60
2023-04-21T09:03:38.500Z,90.90
2023-04-21T09:06:09.753Z,91.30
2023-04-21T09:08:43.498Z,90.10
2023-04-21T09:11:20.915Z,89.30
2023-04-21T09:14:04.371Z,87.50
2023-04-21T09:16:34.415Z,88.00
2023-04-21T09:19:02.904Z,90.00
2023-04-21T09:21:32.865Z,89.40
2023-04-21T09:24:05.420Z,88.40
2023-04-21T09:26:35.228Z,88.60
2023-04-21T09:29:09.043Z,88.90
2023-04-21T09:31:37.754Z,89.30
2023-04-21T09:34:17.642Z,91.20
2023-04-21T09:36:47.605Z,91.30
2023-04-21T09:39:29.160Z,91.30
2023-04-21T09:42:04.053Z,91.20
2023-04-21T09:44:43.032Z,90.40
2023-04-21T09:47:19.300Z,90.30
2023-04-21T09:49:48.422Z,87.80
2023-04-21T09:52:19.579Z,90.30
2023-04-21T09:54:51.193Z,90.60
2023-04-21T09:57:22.725Z,92.20
2023-04-21T09:59:55.976Z,91.50
2023-04-21T10:02:26.117Z,94.30
2023-04-21T10:04:54.782Z,93.90
2023-04-21T10:07:25.049Z,92.30
2023-04-21T10:09:54.650Z,90.50
2023-04-21T10:12:23.332Z,91.10
2023-04-21T10:14:52.610Z,91.60
2023-04-21T10:17:23.885Z,93.80
2023-04-21T10:19:53.024Z,92.20
2023-04-21T10:22:46.337Z,94.50
2023-04-21T10:25:15.697Z,92.60
2023-04-21T10:27:44.389Z,90.70
2023-04-21T10:30:22.484Z,93.40
2023-04-21T10:33:03.208Z,89.10
2023-04-21T10:35:58.790Z,90.20
2023-04-21T10:38:36.575Z,90.30
2023-04-21T10:41:29.182Z,87.90
2023-04-21T10:43:59.024Z,87.20
2023-04-21T10:46:36.878Z,86.80
2023-04-21T10:49:09.286Z,87.60
2023-04-21T10:51:56.363Z,85.80
2023-04-21T10:54:25.823Z,85.10
2023-04-21T10:56:55.763Z,84.60
2023-04-21T10:59:25.914Z,87.20
2023-04-21T11:01:54.016Z,85.20
2023-04-21T11:04:23.861Z,84.80
2023-04-21T11:07:06.270Z,89.60
2023-04-21T11:09:34.705Z,85.80
2023-04-21T11:12:07.294Z,88.60
2023-04-21T11:14:37.101Z,88.70
2023-04-21T11:17:05.561Z,91.00
2023-04-21T11:19:34.168Z,91.30
2023-04-21T11:22:02.120Z,91.10
2023-04-21T11:24:30.393Z,93.30
2023-04-21T11:26:58.430Z,92.80
2023-04-21T11:29:29.578Z,93.00
2023-04-21T11:31:59.049Z,92.00
2023-04-21T11:34:27.506Z,95.50
2023-04-21T11:36:56.488Z,97.70
2023-04-21T11:39:24.826Z,95.00
2023-04-21T11:41:53.078Z,94.30
2023-04-21T11:44:35.940Z,94.70
2023-04-21T11:47:13.548Z,96.30
2023-04-21T11:49:45.490Z,95.50
2023-04-21T11:52:13.889Z,93.20
2023-04-21T11:54:42.111Z,93.80
2023-04-21T11:57:10.377Z,91.50
2023-04-21T11:59:40.133Z,90.60
2023-04-21T12:02:14.248Z,88.30
2023-04-21T12:04:42.462Z,88.20
2023-04-21T12:07:10.630Z,88.80
2023-04-21T12:09:38.676Z,86.20
2023-04-21T12:12:08.361Z,84.70
2023-04-21T12:14:37.040Z,86.20
2023-04-21T12:17:07.989Z,85.40
2023-04-21T12:19:36.760Z,84.20
2023-04-21T12:22:08.418Z,83.00
2023-04-21T12:24:37.033Z,82.00
2023-04-21T12:27:05.784Z,85.50
2023-04-21T12:29:35.618Z,83.80
2023-04-21T12:32:03.810Z,82.90
2023-04-21T12:34:33.673Z,81.30
2023-04-21T12:37:01.690Z,83.50
2023-04-21T12:39:30.273Z,80.00
2023-04-21T12:41:59.057Z,79.10
2023-04-21T12:44:27.540Z,76.40
2023-04-21T12:46:55.556Z,75.80
2023-04-21T12:49:23.485Z,77.00
2023-04-21T12:51:53.186Z,77.20
2023-04-21T12:54:21.125Z,80.80
2023-04-21T12:56:49.455Z,79.10
2023-04-21T12:59:17.438Z,79.00
2023-04-21T13:01:45.713Z,79.40
2023-04-21T13:04:13.957Z,78.10
2023-04-21T13:06:42.475Z,80.90
2023-04-21T13:09:12.461Z,82.10
2023-04-21T13:11:40.912Z,82.10
2023-04-21T13:14:09.060Z,84.60
2023-04-21T13:16:37.533Z,85.20
2023-04-21T13:19:05.617Z,84.20
2023-04-21T13:21:34.365Z,82.70
2023-04-21T13:24:02.936Z,78.00
2023-04-21T13:26:35.133Z,79.00
2023-04-21T13:29:03.141Z,78.60
2023-04-21T13:31:32.694Z,76.60
2023-04-21T13:34:01.273Z,77.90
2023-04-21T13:36:29.263Z,80.90
2023-04-21T13:38:57.534Z,77.30
2023-04-21T13:41:26.064Z,76.80
2023-04-21T13:43:55.429Z,76.10
2023-04-21T13:46:23.595Z,75.60
2023-04-21T13:48:52.084Z,73.60
2023-04-21T13:51:21.519Z,71.80
2023-04-21T13:53:49.707Z,72.20
2023-04-21T13:56:17.939Z,74.10
2023-04-21T13:58:46.706Z,72.20
2023-04-21T14:01:16.929Z,72.90
2023-04-21T14:03:46.014Z,70.90
2023-04-21T14:06:14.060Z,72.00
2023-04-21T14:08:42.353Z,70.90
2023-04-21T14:11:10.382Z,68.20
2023-04-21T14:13:47.795Z,67.70
2023-04-21T14:16:28.419Z,71.00
2023-04-21T14:18:56.960Z,72.20
2023-04-21T14:21:25.011Z,72.00
2023-04-21T14:23:53.381Z,69.20
2023-04-21T14:26:22.044Z,72.90
2023-04-21T14:28:50.395Z,74.70
2023-04-21T14:31:21.630Z,74.90
2023-04-21T14:33:51.827Z,75.10
2023-04-21T14:36:19.899Z,73.90
2023-04-21T14:38:48.363Z,74.80
2023-04-21T14:41:16.470Z,76.30
2023-04-21T14:43:45.123Z,75.40
2023-04-21T14:46:13.990Z,74.10
2023-04-21T14:48:43.931Z,72.30
2023-04-21T14:51:13.767Z,71.10
2023-04-21T14:53:41.746Z,71.60
2023-04-21T14:56:09.687Z,72.00
2023-04-21T14:58:37.990Z,72.80
2023-04-21T15:01:06.182Z,69.30
2023-04-21T15:03:34.733Z,67.70
2023-04-21T15:06:03.205Z,68.30
2023-04-21T15:08:32.622Z,68.60
2023-04-21T15:11:00.668Z,69.90
2023-04-21T15:13:29.254Z,69.30
2023-04-21T15:15:57.721Z,68.40
2023-04-21T15:18:26.015Z,67.90
2023-04-21T15:20:53.950Z,67.30
2023-04-21T15:23:22.261Z,66.10
2023-04-21T15:25:51.874Z,65.40
2023-04-21T15:28:20.265Z,66.30
2023-04-21T15:30:48.277Z,68.70
2023-04-21T15:33:17.351Z,68.80
2023-04-21T15:35:47.466Z,69.00
2023-04-21T15:38:15.927Z,67.80
2023-04-21T15:40:59.064Z,70.00
2023-04-21T15:43:30.952Z,69.40
2023-04-21T15:45:59.106Z,70.90
2023-04-21T15:48:27.194Z,70.10
2023-04-21T15:50:55.744Z,69.70
2023-04-21T15:53:25.105Z,69.20
2023-04-21T15:55:53.580Z,70.10
2023-04-21T15:58:22.299Z,70.60
2023-04-21T16:00:52.396Z,69.80
2023-04-21T16:03:21.324Z,68.40
2023-04-21T16:05:49.888Z,69.40
2023-04-21T16:08:18.259Z,70.00
2023-04-21T16:10:46.504Z,69.40
2023-04-21T16:13:14.894Z,70.50
2023-04-21T16:15:43.318Z,69.10
2023-04-21T16:18:13.179Z,68.00
2023-04-21T16:20:41.685Z,68.60
2023-04-21T16:23:10.142Z,69.60
2023-04-21T16:25:38.569Z,69.00
2023-04-21T16:28:07.425Z,68.00
2023-04-21T16:30:36.182Z,67.00
2023-04-21T16:33:04.223Z,67.70
2023-04-21T16:35:34.084Z,68.10
2023-04-21T16:38:02.546Z,68.70
2023-04-21T16:40:30.556Z,67.80
2023-04-21T16:42:58.613Z,67.80
2023-04-21T16:45:26.971Z,67.70
2023-04-21T16:47:55.132Z,67.20
2023-04-21T16:50:23.643Z,67.10
2023-04-21T16:52:53.013Z,67.60
2023-04-21T16:55:22.530Z,68.00
2023-04-21T16:57:51.160Z,67.80
2023-04-21T17:00:19.843Z,68.00
2023-04-21T17:02:48.334Z,68.20
2023-04-21T17:05:16.904Z,68.50
2023-04-21T17:07:45.807Z,68.70
2023-04-21T17:10:15.496Z,68.40
2023-04-21T17:12:43.441Z,68.20
2023-04-21T17:15:11.792Z,68.00
2023-04-21T17:17:42.319Z,68.30
2023-04-21T17:20:11.695Z,68.80
2023-04-21T17:22:39.838Z,68.70
2023-04-21T17:25:08.763Z,69.30
2023-04-21T17:27:38.769Z,69.00
2023-04-21T17:30:09.380Z,69.00
2023-04-21T17:32:37.914Z,69.00
2023-04-21T17:35:07.275Z,68.40
2023-04-21T17:37:36.075Z,68.40
2023-04-21T17:40:05.897Z,68.20
2023-04-21T17:42:34.065Z,68.20
2023-04-21T17:45:06.220Z,68.70
2023-04-21T17:47:34.326Z,68.70
2023-04-21T17:50:03.467Z,69.40
2023-04-21T17:52:31.580Z,68.70
2023-04-21T17:55:00.282Z,69.00
2023-04-21T17:57:28.402Z,69.40
2023-04-21T17:59:57.321Z,69.10
2023-04-21T18:02:27.241Z,69.10
2023-04-21T18:04:55.778Z,69.10
2023-04-21T18:07:23.960Z,69.10
2023-04-21T18:09:52.791Z,68.80
2023-04-21T18:12:21.170Z,69.40
2023-04-21T18:14:49.655Z,70.00
2023-04-21T18:17:17.798Z,69.40
2023-04-21T18:19:47.613Z,70.10
2023-04-21T18:22:16.228Z,69.80
2023-04-21T18:24:44.719Z,69.60
2023-04-21T18:27:13.912Z,69.70
2023-04-21T18:29:42.349Z,69.50
2023-04-21T18:32:10.474Z,69.50
2023-04-21T18:34:39.157Z,69.80
2023-04-21T18:37:08.775Z,69.80
2023-04-21T18:39:37.158Z,70.00
2023-04-21T18:42:05.553Z,69.80
2023-04-21T18:47:01.864Z,69.50
2023-04-21T18:49:30.189Z,70.10
2023-04-21T18:52:07.950Z,70.40
2023-04-21T18:54:45.064Z,70.20
2023-04-21T18:57:15.379Z,71.00
2023-04-21T18:59:55.450Z,71.20
2023-04-21T19:02:34.282Z,70.80
2023-04-21T19:05:05.300Z,71.10
2023-04-21T19:07:33.469Z,71.00
2023-04-21T19:10:07.542Z,71.20
2023-04-21T19:13:00.249Z,71.30
2023-04-21T19:15:35.467Z,71.60
2023-04-21T19:18:14.154Z,71.10
2023-04-21T19:20:44.533Z,71.60
2023-04-21T19:23:13.286Z,72.30
2023-04-21T19:25:43.104Z,72.40
2023-04-21T19:28:11.973Z,72.20
2023-04-21T19:30:42.336Z,72.50
2023-04-21T19:33:11.199Z,72.40
2023-04-21T19:35:57.228Z,73.00
2023-04-21T19:38:57.074Z,72.90
2023-04-21T19:41:32.242Z,72.90
2023-04-21T19:44:11.051Z,73.50
2023-04-21T19:46:52.613Z,73.20
2023-04-21T19:49:34.804Z,73.40
2023-04-21T19:52:07.080Z,73.20
2023-04-21T19:54:36.148Z,73.20
2023-04-21T19:57:19.453Z,73.20
2023-04-21T19:59:49.934Z,73.60
2023-04-21T20:02:18.076Z,73.80
2023-04-21T20:04:46.640Z,73.90
2023-04-21T20:07:14.798Z,74.70
2023-04-21T20:09:43.452Z,75.70
2023-04-21T20:12:11.649Z,74.40
2023-04-21T20:14:40.541Z,74.40
2023-04-21T20:17:11.118Z,74.50
2023-04-21T20:19:40.563Z,74.60
2023-04-21T20:22:09.607Z,74.40
2023-04-21T20:24:37.664Z,74.40
2023-04-21T20:27:08.758Z,74.60
2023-04-21T20:29:37.844Z,74.70
2023-04-21T20:32:07.395Z,74.70
2023-04-21T20:34:37.550Z,74.90
2023-04-21T20:37:06.378Z,75.40
2023-04-21T20:39:34.443Z,75.10
2023-04-21T20:42:12.492Z,75.80
2023-04-21T20:44:42.515Z,75.50
2023-04-21T20:47:12.122Z,75.70
2023-04-21T20:49:42.751Z,76.00
2023-04-21T20:52:12.101Z,76.20
2023-04-21T20:54:40.106Z,76.20
2023-04-21T20:57:10.704Z,76.20
2023-04-21T20:59:39.199Z,76.60
2023-04-21T21:02:07.987Z,76.70
2023-04-21T21:04:36.219Z,76.70
2023-04-21T21:07:06.260Z,76.70
2023-04-21T21:09:34.325Z,76.70
2023-04-21T21:12:02.866Z,76.80
2023-04-21T21:14:31.387Z,77.00
2023-04-21T21:16:59.860Z,77.00
2023-04-21T21:19:27.987Z,77.00
2023-04-21T21:21:56.535Z,77.00
2023-04-21T21:24:26.459Z,77.30
2023-04-21T21:26:54.809Z,77.30
2023-04-21T21:29:22.846Z,77.40
2023-04-21T21:31:51.208Z,77.60
2023-04-21T21:34:19.237Z,77.60
2023-04-21T21:36:47.608Z,77.70
2023-04-21T21:39:15.683Z,77.80
2023-04-21T21:41:45.105Z,78.00
2023-04-21T21:44:13.153Z,78.10
2023-04-21T21:49:09.611Z,78.00
2023-04-21T21:51:37.994Z,78.20
2023-04-21T21:54:06.629Z,78.10
2023-04-21T21:56:35.131Z,78.40
2023-04-21T21:59:04.512Z,78.30
2023-04-21T22:01:33.003Z,78.40
2023-04-21T22:04:01.239Z,78.70
2023-04-21T22:06:30.146Z,78.80
2023-04-21T22:08:58.390Z,78.70
2023-04-21T22:11:26.884Z,78.70
2023-04-21T22:13:54.899Z,78.80
2023-04-21T22:16:24.658Z,78.90
2023-04-21T22:18:52.722Z,79.20
2023-04-21T22:21:21.908Z,79.00
2023-04-21T22:23:49.883Z,79.00
2023-04-21T22:26:18.721Z,79.00
2023-04-21T22:28:49.994Z,79.40
2023-04-21T22:31:18.412Z,79.40
2023-04-21T22:33:47.840Z,79.60
2023-04-21T22:36:16.617Z,79.70
2023-04-21T22:38:45.742Z,79.70
2023-04-21T22:41:14.724Z,79.80
2023-04-21T22:43:42.746Z,80.10
2023-04-21T22:46:12.021Z,80.30
2023-04-21T22:48:40.402Z,80.20
2023-04-21T22:51:10.353Z,80.50
2023-04-21T22:53:38.334Z,80.70
2023-04-21T22:56:07.423Z,80.70
2023-04-21T22:58:35.874Z,80.60
2023-04-21T23:01:04.184Z,81.00
2023-04-21T23:03:32.646Z,81.20
2023-04-21T23:06:01.089Z,81.20
2023-04-21T23:08:30.447Z,81.30
2023-04-21T23:10:58.870Z,81.30
2023-04-21T23:13:26.844Z,81.50
2023-04-21T23:15:55.196Z,81.70
2023-04-21T23:18:23.162Z,81.90
2023-04-21T23:20:51.538Z,82.00
2023-04-21T23:23:19.634Z,82.00
2023-04-21T23:25:49.428Z,82.00
2023-04-21T23:28:17.502Z,82.10
2023-04-21T23:30:46.182Z,82.10
2023-04-21T23:33:14.249Z,82.10
2023-04-21T23:35:42.740Z,82.60
2023-04-21T23:38:10.744Z,82.50
2023-04-21T23:40:39.164Z,82.60
2023-04-21T23:43:08.552Z,82.80
2023-04-21T23:45:37.308Z,82.80
2023-04-21T23:48:05.588Z,82.70
2023-04-21T23:50:34.426Z,83.00
2023-04-21T23:53:02.477Z,83.10
2023-04-21T23:55:30.925Z,83.30
2023-04-21T23:57:59.046Z,83.10
